sensor_id;sensor_type;location;lat;lon;timestamp;pressure;altitude;pressure_sealevel;temperature;humidity
59859;BME280;45734;53.648;9.566;2023-04-25T00:02:21;96861.88;;;-145.06;100.00
59859;BME280;45734;53.648;9.566;2023-04-25T00:07:22;96849.59;;;-145.06;100.00
59859;BME280;45734;53.648;9.566;2023-04-25T00:12:22;96841.41;;;-145.06;100.00
59859;BME280;45734;53.648;9.566;2023-04-25T00:17:23;96845.50;;;-145.06;100.00
59859;BME280;45734;53.648;9.566;2023-04-25T00:22:26;96837.31;;;-145.06;100.00
59859;BME280;45734;53.648;9.566;2023-04-25T00:27:27;96872.09;;;-145.06;100.00
59859;BME280;45734;53.648;9.566;2023-04-25T00:32:27;96888.47;;;-145.06;100.00
59859;BME280;45734;53.648;9.566;2023-04-25T00:37:27;96992.88;;;-145.06;100.00
59859;BME280;45734;53.648;9.566;2023-04-25T00:42:28;96882.34;;;-145.06;100.00
59859;BME280;45734;53.648;9.566;2023-04-25T00:47:28;96855.72;;;-145.06;100.00
59859;BME280;45734;53.648;9.566;2023-04-25T00:52:29;96880.28;;;-145.06;100.00
59859;BME280;45734;53.648;9.566;2023-04-25T00:57:29;96882.34;;;-145.06;100.00
59859;BME280;45734;53.648;9.566;2023-04-25T01:02:30;96888.47;;;-145.06;100.00
59859;BME280;45734;53.648;9.566;2023-04-25T01:07:30;96902.81;;;-145.06;100.00
59859;BME280;45734;53.648;9.566;2023-04-25T01:12:31;96911.00;;;-145.06;100.00
59859;BME280;45734;53.648;9.566;2023-04-25T01:17:32;96880.28;;;-145.06;100.00
59859;BME280;45734;53.648;9.566;2023-04-25T01:22:34;96915.09;;;-145.06;100.00
59859;BME280;45734;53.648;9.566;2023-04-25T01:27:36;96874.16;;;-145.06;100.00
59859;BME280;45734;53.648;9.566;2023-04-25T01:32:36;96890.53;;;-145.06;100.00
59859;BME280;45734;53.648;9.566;2023-04-25T01:37:40;96833.22;;;-145.06;100.00
59859;BME280;45734;53.648;9.566;2023-04-25T01:42:43;96894.63;;;-145.06;100.00
59859;BME280;45734;53.648;9.566;2023-04-25T01:47:43;96949.88;;;-145.06;100.00
59859;BME280;45734;53.648;9.566;2023-04-25T01:52:49;96841.41;;;-145.06;100.00
59859;BME280;45734;53.648;9.566;2023-04-25T01:57:49;96878.25;;;-145.06;100.00
59859;BME280;45734;53.648;9.566;2023-04-25T02:02:49;96847.53;;;-145.06;100.00
59859;BME280;45734;53.648;9.566;2023-04-25T02:07:50;96878.25;;;-145.06;100.00
59859;BME280;45734;53.648;9.566;2023-04-25T02:12:51;96827.06;;;-145.06;100.00
59859;BME280;45734;53.648;9.566;2023-04-25T02:17:51;96808.66;;;-145.06;100.00
59859;BME280;45734;53.648;9.566;2023-04-25T02:22:54;96814.78;;;-145.06;100.00
59859;BME280;45734;53.648;9.566;2023-04-25T02:27:54;96831.16;;;-145.06;100.00
59859;BME280;45734;53.648;9.566;2023-04-25T02:32:55;96843.44;;;-145.06;100.00
59859;BME280;45734;53.648;9.566;2023-04-25T02:37:55;96831.16;;;-145.06;100.00
59859;BME280;45734;53.648;9.566;2023-04-25T02:42:55;96833.22;;;-145.06;100.00
59859;BME280;45734;53.648;9.566;2023-04-25T02:47:55;96796.38;;;-145.06;100.00
59859;BME280;45734;53.648;9.566;2023-04-25T02:52:56;96822.97;;;-145.06;100.00
59859;BME280;45734;53.648;9.566;2023-04-25T02:57:56;96777.94;;;-145.06;100.00
59859;BME280;45734;53.648;9.566;2023-04-25T03:02:56;96812.75;;;-145.06;100.00
59859;BME280;45734;53.648;9.566;2023-04-25T03:07:57;96792.28;;;-145.06;100.00
59859;BME280;45734;53.648;9.566;2023-04-25T03:12:59;96810.69;;;-145.06;100.00
59859;BME280;45734;53.648;9.566;2023-04-25T03:17:59;96771.81;;;-145.06;100.00
59859;BME280;45734;53.648;9.566;2023-04-25T03:22:59;96780.00;;;-145.06;100.00
59859;BME280;45734;53.648;9.566;2023-04-25T03:28:00;96804.56;;;-145.06;100.00
59859;BME280;45734;53.648;9.566;2023-04-25T03:33:00;96751.34;;;-145.06;100.00
59859;BME280;45734;53.648;9.566;2023-04-25T03:38:00;96767.72;;;-145.06;100.00
59859;BME280;45734;53.648;9.566;2023-04-25T03:43:00;96759.53;;;-145.06;100.00
59859;BME280;45734;53.648;9.566;2023-04-25T03:48:01;96769.75;;;-145.06;100.00
59859;BME280;45734;53.648;9.566;2023-04-25T03:53:01;96743.16;;;-145.06;100.00
59859;BME280;45734;53.648;9.566;2023-04-25T03:58:01;96769.75;;;-145.06;100.00
59859;BME280;45734;53.648;9.566;2023-04-25T04:03:02;96747.25;;;-145.06;100.00
59859;BME280;45734;53.648;9.566;2023-04-25T04:08:05;96710.41;;;-145.06;100.00
59859;BME280;45734;53.648;9.566;2023-04-25T04:13:05;96749.28;;;-145.06;100.00
59859;BME280;45734;53.648;9.566;2023-04-25T04:18:05;96749.28;;;-145.06;100.00
59859;BME280;45734;53.648;9.566;2023-04-25T04:23:06;96780.00;;;-145.06;100.00
59859;BME280;45734;53.648;9.566;2023-04-25T04:28:06;96716.53;;;-145.06;100.00
59859;BME280;45734;53.648;9.566;2023-04-25T04:33:07;96749.28;;;-145.06;100.00
59859;BME280;45734;53.648;9.566;2023-04-25T04:38:07;96681.75;;;-145.06;100.00
59859;BME280;45734;53.648;9.566;2023-04-25T04:43:07;96747.25;;;-145.06;100.00
59859;BME280;45734;53.648;9.566;2023-04-25T04:48:10;96681.75;;;-145.06;100.00
59859;BME280;45734;53.648;9.566;2023-04-25T04:53:14;96687.88;;;-145.06;100.00
59859;BME280;45734;53.648;9.566;2023-04-25T04:58:14;96636.69;;;-145.06;100.00
59859;BME280;45734;53.648;9.566;2023-04-25T05:03:15;96636.69;;;-145.06;100.00
59859;BME280;45734;53.648;9.566;2023-04-25T05:08:15;96509.81;;;-145.06;100.00
59859;BME280;45734;53.648;9.566;2023-04-25T05:13:15;95983.81;;;-145.06;100.00
59859;BME280;45734;53.648;9.566;2023-04-25T05:18:16;95840.53;;;-145.06;100.00
59859;BME280;45734;53.648;9.566;2023-04-25T05:23:16;95799.63;;;-145.06;100.00
59859;BME280;45734;53.648;9.566;2023-04-25T05:28:19;95846.69;;;-145.06;100.00
59859;BME280;45734;53.648;9.566;2023-04-25T05:33:20;95654.31;;;-145.06;100.00
59859;BME280;45734;53.648;9.566;2023-04-25T05:38:21;95535.63;;;-145.06;100.00
59859;BME280;45734;53.648;9.566;2023-04-25T05:43:21;95625.66;;;-145.06;100.00
59859;BME280;45734;53.648;9.566;2023-04-25T05:48:21;95830.31;;;-145.06;100.00
59859;BME280;45734;53.648;9.566;2023-04-25T05:53:22;96210.97;;;-145.06;100.00
59859;BME280;45734;53.648;9.566;2023-04-25T05:58:22;95953.09;;;-145.06;100.00
59859;BME280;45734;53.648;9.566;2023-04-25T06:03:22;95611.34;;;-145.06;100.00
59859;BME280;45734;53.648;9.566;2023-04-25T06:08:22;95539.72;;;-145.06;100.00
59859;BME280;45734;53.648;9.566;2023-04-25T06:13:23;95504.94;;;-145.06;100.00
59859;BME280;45734;53.648;9.566;2023-04-25T06:18:23;95525.38;;;-145.06;100.00
59859;BME280;45734;53.648;9.566;2023-04-25T06:23:24;95410.81;;;-145.06;100.00
59859;BME280;45734;53.648;9.566;2023-04-25T06:28:24;95392.38;;;-145.06;100.00
59859;BME280;45734;53.648;9.566;2023-04-25T06:33:24;95435.34;;;-145.06;100.00
59859;BME280;45734;53.648;9.566;2023-04-25T06:38:25;96174.13;;;-145.06;100.00
59859;BME280;45734;53.648;9.566;2023-04-25T06:43:25;95275.75;;;-145.06;100.00
59859;BME280;45734;53.648;9.566;2023-04-25T06:48:27;95316.66;;;-145.06;100.00
59859;BME280;45734;53.648;9.566;2023-04-25T06:53:27;95337.13;;;-145.06;100.00
59859;BME280;45734;53.648;9.566;2023-04-25T06:58:27;95281.88;;;-145.06;100.00
59859;BME280;45734;53.648;9.566;2023-04-25T07:03:28;95285.97;;;-145.06;100.00
59859;BME280;45734;53.648;9.566;2023-04-25T07:08:29;95269.59;;;-145.06;100.00
59859;BME280;45734;53.648;9.566;2023-04-25T07:13:29;95240.97;;;-145.06;100.00
59859;BME280;45734;53.648;9.566;2023-04-25T07:18:30;95142.75;;;-145.06;100.00
59859;BME280;45734;53.648;9.566;2023-04-25T07:23:30;95118.19;;;-145.06;100.00
59859;BME280;45734;53.648;9.566;2023-04-25T07:28:30;95081.38;;;-145.06;100.00
59859;BME280;45734;53.648;9.566;2023-04-25T07:33:31;95120.25;;;-145.06;100.00
59859;BME280;45734;53.648;9.566;2023-04-25T07:38:31;94858.34;;;-145.06;98.93
59859;BME280;45734;53.648;9.566;2023-04-25T07:43:31;95038.41;;;-145.06;91.63
59859;BME280;45734;53.648;9.566;2023-04-25T07:48:31;94905.41;;;-145.06;89.38
59859;BME280;45734;53.648;9.566;2023-04-25T07:53:32;94514.63;;;-145.06;88.50
59859;BME280;45734;53.648;9.566;2023-04-25T07:58:34;94747.84;;;-145.06;78.48
59859;BME280;45734;53.648;9.566;2023-04-25T08:03:35;94854.25;;;-145.06;81.97
59859;BME280;45734;53.648;9.566;2023-04-25T08:08:35;94866.53;;;-145.06;86.24
59859;BME280;45734;53.648;9.566;2023-04-25T08:13:35;93886.63;;;-145.06;87.51
59859;BME280;45734;53.648;9.566;2023-04-25T08:18:36;94794.91;;;-145.06;75.63
59859;BME280;45734;53.648;9.566;2023-04-25T08:23:36;94925.88;;;-145.06;86.93
59859;BME280;45734;53.648;9.566;2023-04-25T08:28:36;94972.91;;;-145.06;94.90
59859;BME280;45734;53.648;9.566;2023-04-25T08:33:37;94956.56;;;-145.06;94.31
59859;BME280;45734;53.648;9.566;2023-04-25T08:38:37;94940.19;;;-145.06;86.65
59859;BME280;45734;53.648;9.566;2023-04-25T08:43:37;94921.78;;;-145.06;88.95
59859;BME280;45734;53.648;9.566;2023-04-25T08:48:42;94899.25;;;-145.06;89.48
59859;BME280;45734;53.648;9.566;2023-04-25T08:53:45;94737.63;;;-145.06;83.57
59859;BME280;45734;53.648;9.566;2023-04-25T08:58:49;94586.25;;;-145.06;86.75
59859;BME280;45734;53.648;9.566;2023-04-25T09:03:52;99568.91;;;-145.06;81.60
59859;BME280;45734;53.648;9.566;2023-04-25T09:08:53;95455.81;;;-145.06;84.89
59859;BME280;45734;53.648;9.566;2023-04-25T09:19:24;98606.28;;;-145.06;99.54
59859;BME280;45734;53.648;9.566;2023-04-25T09:29:37;98632.91;;;-145.06;100.00
59859;BME280;45734;53.648;9.566;2023-04-25T09:34:45;98376.94;;;-145.06;96.73
59859;BME280;45734;53.648;9.566;2023-04-25T09:39:49;97605.00;;;-145.06;89.79
59859;BME280;45734;53.648;9.566;2023-04-25T09:44:53;97934.63;;;-145.06;82.36
59859;BME280;45734;53.648;9.566;2023-04-25T09:49:54;96122.97;;;-145.06;86.10
59859;BME280;45734;53.648;9.566;2023-04-25T09:54:55;96984.69;;;-145.06;93.35
59859;BME280;45734;53.648;9.566;2023-04-25T09:59:55;97562.00;;;-145.06;92.66
59859;BME280;45734;53.648;9.566;2023-04-25T10:04:56;97551.78;;;-145.06;86.17
59859;BME280;45734;53.648;9.566;2023-04-25T10:10:01;96845.50;;;-145.06;75.51
59859;BME280;45734;53.648;9.566;2023-04-25T10:15:03;97125.94;;;-145.06;71.83
59859;BME280;45734;53.648;9.566;2023-04-25T10:20:06;96702.22;;;-145.06;66.51
59859;BME280;45734;53.648;9.566;2023-04-25T10:25:10;96313.31;;;-145.06;67.75
59859;BME280;45734;53.648;9.566;2023-04-25T10:30:14;96401.31;;;-145.06;63.87
59859;BME280;45734;53.648;9.566;2023-04-25T10:35:24;96145.47;;;-145.06;65.44
59859;BME280;45734;53.648;9.566;2023-04-25T10:40:25;96022.69;;;-145.06;60.73
59859;BME280;45734;53.648;9.566;2023-04-25T10:45:25;96231.44;;;-145.06;62.60
59859;BME280;45734;53.648;9.566;2023-04-25T10:50:37;96301.03;;;-145.06;69.28
59859;BME280;45734;53.648;9.566;2023-04-25T10:55:49;96032.91;;;-145.06;68.50
59859;BME280;45734;53.648;9.566;2023-04-25T11:00:50;95963.34;;;-145.06;64.76
59859;BME280;45734;53.648;9.566;2023-04-25T11:05:51;96401.31;;;-145.06;72.76
59859;BME280;45734;53.648;9.566;2023-04-25T11:10:53;96739.06;;;-145.06;89.00
59859;BME280;45734;53.648;9.566;2023-04-25T11:15:53;96798.41;;;-145.06;94.95
59859;BME280;45734;53.648;9.566;2023-04-25T11:20:53;96620.31;;;-145.06;93.38
59859;BME280;45734;53.648;9.566;2023-04-25T11:25:53;96606.00;;;-145.06;92.11
59859;BME280;45734;53.648;9.566;2023-04-25T11:30:54;96513.88;;;-145.06;87.63
59859;BME280;45734;53.648;9.566;2023-04-25T11:35:54;96315.34;;;-145.06;75.78
59859;BME280;45734;53.648;9.566;2023-04-25T11:40:58;96086.13;;;-145.06;69.09
59859;BME280;45734;53.648;9.566;2023-04-25T11:45:58;95899.88;;;-145.06;66.91
59859;BME280;45734;53.648;9.566;2023-04-25T11:51:00;95674.78;;;-145.06;63.24
59859;BME280;45734;53.648;9.566;2023-04-25T11:56:01;95844.63;;;-145.06;63.37
59859;BME280;45734;53.648;9.566;2023-04-25T12:01:01;95820.06;;;-145.06;64.58
59859;BME280;45734;53.648;9.566;2023-04-25T12:06:03;95695.25;;;-145.06;64.03
59859;BME280;45734;53.648;9.566;2023-04-25T12:11:04;95592.91;;;-145.06;65.21
59859;BME280;45734;53.648;9.566;2023-04-25T12:16:04;94549.41;;;-145.06;60.80
59859;BME280;45734;53.648;9.566;2023-04-25T12:21:05;94451.22;;;-145.06;65.71
59859;BME280;45734;53.648;9.566;2023-04-25T12:26:05;95861.00;;;-145.06;74.81
59859;BME280;45734;53.648;9.566;2023-04-25T12:31:06;96114.78;;;-145.06;82.42
59859;BME280;45734;53.648;9.566;2023-04-25T12:36:06;96084.06;;;-145.06;77.06
59859;BME280;45734;53.648;9.566;2023-04-25T12:41:11;95721.84;;;-145.06;71.51
59859;BME280;45734;53.648;9.566;2023-04-25T12:46:12;95848.72;;;-145.06;73.53
59859;BME280;45734;53.648;9.566;2023-04-25T12:51:12;96505.72;;;-145.06;99.36
59859;BME280;45734;53.648;9.566;2023-04-25T12:56:12;96870.06;;;-145.06;100.00
59859;BME280;45734;53.648;9.566;2023-04-25T13:01:13;96820.94;;;-145.06;100.00
59859;BME280;45734;53.648;9.566;2023-04-25T13:06:15;96753.38;;;-145.06;100.00
59859;BME280;45734;53.648;9.566;2023-04-25T13:11:15;96855.72;;;-145.06;100.00
59859;BME280;45734;53.648;9.566;2023-04-25T13:16:16;96546.63;;;-145.06;100.00
59859;BME280;45734;53.648;9.566;2023-04-25T13:21:16;96548.69;;;-145.06;100.00
59859;BME280;45734;53.648;9.566;2023-04-25T13:26:17;96837.31;;;-145.06;100.00
59859;BME280;45734;53.648;9.566;2023-04-25T13:31:17;96984.69;;;-145.06;100.00
59859;BME280;45734;53.648;9.566;2023-04-25T13:36:17;96913.03;;;-145.06;100.00
59859;BME280;45734;53.648;9.566;2023-04-25T13:41:18;96980.59;;;-145.06;100.00
59859;BME280;45734;53.648;9.566;2023-04-25T13:46:18;96868.00;;;-145.06;100.00
59859;BME280;45734;53.648;9.566;2023-04-25T13:51:19;96739.06;;;-145.06;100.00
59859;BME280;45734;53.648;9.566;2023-04-25T13:56:19;96620.31;;;-145.06;100.00
59859;BME280;45734;53.648;9.566;2023-04-25T14:01:20;96436.13;;;-145.06;100.00
59859;BME280;45734;53.648;9.566;2023-04-25T14:06:21;96321.50;;;-145.06;100.00
59859;BME280;45734;53.648;9.566;2023-04-25T14:11:23;96188.47;;;-145.06;98.43
59859;BME280;45734;53.648;9.566;2023-04-25T14:16:24;95854.88;;;-145.06;92.35
59859;BME280;45734;53.648;9.566;2023-04-25T14:21:24;94876.75;;;-145.06;88.32
59859;BME280;45734;53.648;9.566;2023-04-25T14:26:25;94725.34;;;-145.06;79.27
59859;BME280;45734;53.648;9.566;2023-04-25T14:31:25;94676.25;;;-145.06;75.15
59859;BME280;45734;53.648;9.566;2023-04-25T14:36:28;94776.50;;;-145.06;75.99
59859;BME280;45734;53.648;9.566;2023-04-25T14:41:28;94817.44;;;-145.06;85.81
59859;BME280;45734;53.648;9.566;2023-04-25T14:46:28;94784.69;;;-145.06;87.52
59859;BME280;45734;53.648;9.566;2023-04-25T14:51:29;95249.16;;;-145.06;84.44
59859;BME280;45734;53.648;9.566;2023-04-25T14:56:29;95830.31;;;-145.06;82.83
59859;BME280;45734;53.648;9.566;2023-04-25T15:01:30;95617.47;;;-145.06;83.75
59859;BME280;45734;53.648;9.566;2023-04-25T15:06:30;95054.75;;;-145.06;79.65
59859;BME280;45734;53.648;9.566;2023-04-25T15:11:31;95105.91;;;-145.06;78.57
59859;BME280;45734;53.648;9.566;2023-04-25T15:16:31;95253.25;;;-145.06;81.38
59859;BME280;45734;53.648;9.566;2023-04-25T15:21:31;95490.59;;;-145.06;78.24
59859;BME280;45734;53.648;9.566;2023-04-25T15:26:32;95308.50;;;-145.06;82.68
59859;BME280;45734;53.648;9.566;2023-04-25T15:31:32;95015.88;;;-145.06;81.58
59859;BME280;45734;53.648;9.566;2023-04-25T15:36:33;95490.59;;;-145.06;75.99
59859;BME280;45734;53.648;9.566;2023-04-25T15:41:33;95226.63;;;-145.06;84.29
59859;BME280;45734;53.648;9.566;2023-04-25T15:46:33;95472.19;;;-145.06;84.25
59859;BME280;45734;53.648;9.566;2023-04-25T15:51:34;95398.53;;;-145.06;74.42
59859;BME280;45734;53.648;9.566;2023-04-25T15:56:34;95482.41;;;-145.06;77.30
59859;BME280;45734;53.648;9.566;2023-04-25T16:01:35;95429.22;;;-145.06;81.37
59859;BME280;45734;53.648;9.566;2023-04-25T16:06:35;95285.97;;;-145.06;82.87
59859;BME280;45734;53.648;9.566;2023-04-25T16:11:35;95537.66;;;-145.06;86.44
59859;BME280;45734;53.648;9.566;2023-04-25T16:16:36;95828.25;;;-145.06;86.00
59859;BME280;45734;53.648;9.566;2023-04-25T16:21:36;95562.22;;;-145.06;86.99
59859;BME280;45734;53.648;9.566;2023-04-25T16:26:37;95230.72;;;-145.06;90.19
59859;BME280;45734;53.648;9.566;2023-04-25T16:31:37;95122.28;;;-145.06;82.61
59859;BME280;45734;53.648;9.566;2023-04-25T16:36:37;95412.84;;;-145.06;84.31
59859;BME280;45734;53.648;9.566;2023-04-25T16:41:38;95083.41;;;-145.06;85.18
59859;BME280;45734;53.648;9.566;2023-04-25T16:46:38;95343.28;;;-145.06;89.12
59859;BME280;45734;53.648;9.566;2023-04-25T16:51:38;95290.06;;;-145.06;92.99
59859;BME280;45734;53.648;9.566;2023-04-25T16:56:39;95433.31;;;-145.06;92.34
59859;BME280;45734;53.648;9.566;2023-04-25T17:01:40;95523.34;;;-145.06;92.46
59859;BME280;45734;53.648;9.566;2023-04-25T17:06:40;95955.16;;;-145.06;88.29
59859;BME280;45734;53.648;9.566;2023-04-25T17:11:41;95234.81;;;-145.06;86.00
59859;BME280;45734;53.648;9.566;2023-04-25T17:16:41;95265.50;;;-145.06;87.09
59859;BME280;45734;53.648;9.566;2023-04-25T17:21:42;95805.75;;;-145.06;94.19
59859;BME280;45734;53.648;9.566;2023-04-25T17:26:43;95883.53;;;-145.06;94.72
59859;BME280;45734;53.648;9.566;2023-04-25T17:31:43;96143.44;;;-145.06;90.93
59859;BME280;45734;53.648;9.566;2023-04-25T17:36:44;96098.41;;;-145.06;100.00
59859;BME280;45734;53.648;9.566;2023-04-25T17:41:45;95865.09;;;-145.06;100.00
59859;BME280;45734;53.648;9.566;2023-04-25T17:46:45;96198.69;;;-145.06;100.00
59859;BME280;45734;53.648;9.566;2023-04-25T17:51:46;96045.19;;;-145.06;100.00
59859;BME280;45734;53.648;9.566;2023-04-25T17:56:47;96305.13;;;-145.06;100.00
59859;BME280;45734;53.648;9.566;2023-04-25T18:01:47;96065.66;;;-145.06;100.00
59859;BME280;45734;53.648;9.566;2023-04-25T18:06:48;96063.63;;;-145.06;100.00
59859;BME280;45734;53.648;9.566;2023-04-25T18:11:50;96080.00;;;-145.06;100.00
59859;BME280;45734;53.648;9.566;2023-04-25T18:16:54;96077.94;;;-145.06;100.00
59859;BME280;45734;53.648;9.566;2023-04-25T18:21:54;96172.09;;;-145.06;100.00
59859;BME280;45734;53.648;9.566;2023-04-25T18:26:55;96178.22;;;-145.06;100.00
59859;BME280;45734;53.648;9.566;2023-04-25T18:31:59;96129.09;;;-145.06;100.00
59859;BME280;45734;53.648;9.566;2023-04-25T18:36:59;96100.44;;;-145.06;100.00
59859;BME280;45734;53.648;9.566;2023-04-25T18:42:00;96141.38;;;-145.06;100.00
59859;BME280;45734;53.648;9.566;2023-04-25T18:47:00;96145.47;;;-145.06;100.00
59859;BME280;45734;53.648;9.566;2023-04-25T18:52:00;96153.66;;;-145.06;100.00
59859;BME280;45734;53.648;9.566;2023-04-25T18:57:03;96186.41;;;-145.06;100.00
59859;BME280;45734;53.648;9.566;2023-04-25T19:02:05;96151.63;;;-145.06;100.00
59859;BME280;45734;53.648;9.566;2023-04-25T19:07:05;96284.66;;;-145.06;100.00
59859;BME280;45734;53.648;9.566;2023-04-25T19:12:05;96217.13;;;-145.06;100.00
59859;BME280;45734;53.648;9.566;2023-04-25T19:17:06;96219.16;;;-145.06;100.00
59859;BME280;45734;53.648;9.566;2023-04-25T19:22:06;96258.03;;;-145.06;100.00
59859;BME280;45734;53.648;9.566;2023-04-25T19:27:07;96256.00;;;-145.06;100.00
59859;BME280;45734;53.648;9.566;2023-04-25T19:32:07;96274.41;;;-145.06;100.00
59859;BME280;45734;53.648;9.566;2023-04-25T19:37:08;97392.06;;;-145.06;100.00
59859;BME280;45734;53.648;9.566;2023-04-25T19:42:08;96387.00;;;-145.06;100.00
59859;BME280;45734;53.648;9.566;2023-04-25T19:47:11;96268.28;;;-145.06;100.00
59859;BME280;45734;53.648;9.566;2023-04-25T19:52:12;96231.44;;;-145.06;100.00
59859;BME280;45734;53.648;9.566;2023-04-25T19:57:16;96219.16;;;-145.06;100.00
59859;BME280;45734;53.648;9.566;2023-04-25T20:02:16;96264.19;;;-145.06;100.00
59859;BME280;45734;53.648;9.566;2023-04-25T20:07:17;96276.47;;;-145.06;100.00
59859;BME280;45734;53.648;9.566;2023-04-25T20:12:20;96272.38;;;-145.06;100.00
59859;BME280;45734;53.648;9.566;2023-04-25T20:17:21;96256.00;;;-145.06;100.00
59859;BME280;45734;53.648;9.566;2023-04-25T20:22:21;96260.09;;;-145.06;100.00
59859;BME280;45734;53.648;9.566;2023-04-25T20:27:21;96264.19;;;-145.06;100.00
59859;BME280;45734;53.648;9.566;2023-04-25T20:32:21;96245.75;;;-145.06;100.00
59859;BME280;45734;53.648;9.566;2023-04-25T20:37:22;96256.00;;;-145.06;100.00
59859;BME280;45734;53.648;9.566;2023-04-25T20:42:22;96227.34;;;-145.06;100.00
59859;BME280;45734;53.648;9.566;2023-04-25T20:47:22;96231.44;;;-145.06;100.00
59859;BME280;45734;53.648;9.566;2023-04-25T20:52:23;96247.81;;;-145.06;100.00
59859;BME280;45734;53.648;9.566;2023-04-25T20:57:23;96192.56;;;-145.06;100.00
59859;BME280;45734;53.648;9.566;2023-04-25T21:02:24;96204.84;;;-145.06;100.00
59859;BME280;45734;53.648;9.566;2023-04-25T21:07:24;96184.38;;;-145.06;100.00
59859;BME280;45734;53.648;9.566;2023-04-25T21:12:25;96256.00;;;-145.06;100.00
59859;BME280;45734;53.648;9.566;2023-04-25T21:17:26;96865.97;;;-145.06;100.00
59859;BME280;45734;53.648;9.566;2023-04-25T21:22:26;96675.59;;;-145.06;100.00
59859;BME280;45734;53.648;9.566;2023-04-25T21:27:26;96714.50;;;-145.06;100.00
59859;BME280;45734;53.648;9.566;2023-04-25T21:32:27;96665.34;;;-145.06;100.00
59859;BME280;45734;53.648;9.566;2023-04-25T21:37:27;96554.81;;;-145.06;100.00
59859;BME280;45734;53.648;9.566;2023-04-25T21:42:27;96391.09;;;-145.06;100.00
59859;BME280;45734;53.648;9.566;2023-04-25T21:47:28;96129.09;;;-145.06;100.00
59859;BME280;45734;53.648;9.566;2023-04-25T21:52:28;96135.25;;;-145.06;100.00
59859;BME280;45734;53.648;9.566;2023-04-25T21:57:29;96112.72;;;-145.06;100.00
59859;BME280;45734;53.648;9.566;2023-04-25T22:02:29;96135.25;;;-145.06;100.00
59859;BME280;45734;53.648;9.566;2023-04-25T22:07:30;96135.25;;;-145.06;100.00
59859;BME280;45734;53.648;9.566;2023-04-25T22:12:30;96159.81;;;-145.06;100.00
59859;BME280;45734;53.648;9.566;2023-04-25T22:17:31;96100.44;;;-145.06;100.00
59859;BME280;45734;53.648;9.566;2023-04-25T22:22:32;96122.97;;;-145.06;100.00
59859;BME280;45734;53.648;9.566;2023-04-25T22:27:33;96108.63;;;-145.06;100.00
59859;BME280;45734;53.648;9.566;2023-04-25T22:32:34;96118.88;;;-145.06;100.00
59859;BME280;45734;53.648;9.566;2023-04-25T22:37:35;96143.44;;;-145.06;100.00
59859;BME280;45734;53.648;9.566;2023-04-25T22:42:39;96186.41;;;-145.06;100.00
59859;BME280;45734;53.648;9.566;2023-04-25T22:47:40;96163.91;;;-145.06;100.00
59859;BME280;45734;53.648;9.566;2023-04-25T22:52:41;96159.81;;;-145.06;100.00
59859;BME280;45734;53.648;9.566;2023-04-25T22:57:42;96104.53;;;-145.06;100.00
59859;BME280;45734;53.648;9.566;2023-04-25T23:02:43;96143.44;;;-145.06;100.00
59859;BME280;45734;53.648;9.566;2023-04-25T23:07:44;96196.66;;;-145.06;100.00
59859;BME280;45734;53.648;9.566;2023-04-25T23:12:44;96210.97;;;-145.06;100.00
59859;BME280;45734;53.648;9.566;2023-04-25T23:17:45;96155.72;;;-145.06;100.00
59859;BME280;45734;53.648;9.566;2023-04-25T23:22:45;96202.78;;;-145.06;100.00
59859;BME280;45734;53.648;9.566;2023-04-25T23:27:46;96182.31;;;-145.06;100.00
59859;BME280;45734;53.648;9.566;2023-04-25T23:32:47;96145.47;;;-145.06;100.00
59859;BME280;45734;53.648;9.566;2023-04-25T23:37:47;96200.75;;;-145.06;100.00
59859;BME280;45734;53.648;9.566;2023-04-25T23:42:48;96198.69;;;-145.06;100.00
59859;BME280;45734;53.648;9.566;2023-04-25T23:47:48;96180.28;;;-145.06;100.00
59859;BME280;45734;53.648;9.566;2023-04-25T23:52:48;96239.63;;;-145.06;100.00
59859;BME280;45734;53.648;9.566;2023-04-25T23:57:49;96231.44;;;-145.06;100.00
